Time;durP1;ratioP1;P1;durP2;ratioP2;P2;SDS_P1;SDS_P2;PMS_P1;PMS_P2;Temp;Humidity;BMP_temperature;BMP_pressure;BME280_temperature;BME280_humidity;BME280_pressure;Samples;Min_cycle;Max_cycle;Signal;HPM_P1;HPM_P2
2022/09/30 00:01:41;;;;;;;15.00;8.00;;;;;;;6.44;94.91;99212.68;104916;1272;71928;-73
2022/09/30 00:04:29;;;;;;;15.00;8.20;;;;;;;6.42;94.94;99209.68;104971;1274;60641;-75
2022/09/30 00:07:17;;;;;;;14.60;8.10;;;;;;;6.39;94.95;99213.41;104793;1274;60561;-74
2022/09/30 00:10:06;;;;;;;15.80;8.30;;;;;;;6.37;95.12;99212.67;104890;1273;74897;-74
2022/09/30 00:12:54;;;;;;;15.30;8.60;;;;;;;6.36;95.37;99214.17;105081;1274;69471;-73
2022/09/30 00:15:46;;;;;;;12.90;7.00;;;;;;;6.34;95.17;99215.04;105068;1274;70598;-74
2022/09/30 00:18:35;;;;;;;16.00;7.90;;;;;;;6.29;95.15;99213.20;104962;1274;59856;-74
2022/09/30 00:21:24;;;;;;;14.30;7.50;;;;;;;6.27;95.17;99211.70;105122;1274;60561;-73
2022/09/30 00:24:15;;;;;;;17.70;9.00;;;;;;;6.24;95.45;99209.20;104993;1274;74748;-72
2022/09/30 00:27:03;;;;;;;16.50;9.00;;;;;;;6.23;95.52;99209.51;105060;1274;68485;-72
2022/09/30 00:29:51;;;;;;;16.20;8.80;;;;;;;6.22;95.70;99213.30;104868;1271;73372;-72
2022/09/30 00:32:39;;;;;;;18.40;9.00;;;;;;;6.22;95.35;99217.82;104926;1274;61534;-73
2022/09/30 00:35:27;;;;;;;15.60;8.70;;;;;;;6.21;95.77;99222.45;104938;1274;60996;-73
2022/09/30 00:38:15;;;;;;;16.30;9.50;;;;;;;6.22;95.70;99222.45;104943;1273;74056;-73
2022/09/30 00:41:04;;;;;;;15.90;8.70;;;;;;;6.23;95.55;99224.30;105197;1274;68413;-71
2022/09/30 00:43:53;;;;;;;15.10;8.00;;;;;;;6.24;95.63;99225.42;105107;1274;72859;-73
2022/09/30 00:46:41;;;;;;;18.80;9.50;;;;;;;6.25;95.78;99223.23;105209;1274;59669;-73
2022/09/30 00:49:34;;;;;;;17.30;8.80;;;;;;;6.27;95.60;99228.94;105166;1274;60253;-72
2022/09/30 00:52:23;;;;;;;16.90;9.50;;;;;;;6.28;95.55;99234.09;104933;1274;71959;-73
2022/09/30 00:55:39;;;;;;;18.20;9.60;;;;;;;6.29;95.44;99240.92;105183;1273;67260;-72
2022/09/30 00:58:41;;;;;;;15.40;9.00;;;;;;;6.33;95.25;99241.52;104944;1274;73287;-74
2022/09/30 01:01:30;;;;;;;16.50;8.40;;;;;;;6.39;95.12;99244.80;104835;1273;60284;-74
2022/09/30 01:04:23;;;;;;;15.40;8.50;;;;;;;6.43;95.28;99244.45;104849;1274;59634;-73
2022/09/30 01:07:13;;;;;;;17.40;9.10;;;;;;;6.47;94.72;99251.60;105073;1274;74466;-73
2022/09/30 01:10:02;;;;;;;16.20;8.10;;;;;;;6.51;94.60;99251.83;104853;1274;69781;-73
2022/09/30 01:12:51;;;;;;;17.20;8.30;;;;;;;6.55;94.69;99252.79;104878;1274;353212;-73
2022/09/30 01:15:57;;;;;;;15.20;8.90;;;;;;;6.58;94.37;99259.07;105292;1274;59568;-73
2022/09/30 01:20:02;;;;;;;16.80;9.00;;;;;;;6.61;94.29;99264.64;105130;1274;60140;-73
2022/09/30 01:23:46;;;;;;;18.50;9.40;;;;;;;6.63;93.75;99262.39;104676;1279;73338;-71
2022/09/30 01:27:00;;;;;;;16.90;8.50;;;;;;;6.63;93.50;99265.77;103847;1285;68427;-71
2022/09/30 01:30:47;;;;;;;16.70;8.90;;;;;;;6.63;93.71;99271.76;103594;1291;74479;-74
2022/09/30 01:33:51;;;;;;;15.40;8.20;;;;;;;6.64;93.54;99270.59;102540;1297;59775;-73
2022/09/30 01:37:31;;;;;;;16.40;8.40;;;;;;;6.64;93.65;99274.10;102621;1297;60846;-74
2022/09/30 01:40:50;;;;;;;17.80;8.80;;;;;;;6.64;93.77;99274.98;102594;1297;72028;-72
2022/09/30 01:43:47;;;;;;;18.10;9.90;;;;;;;6.65;93.66;99274.39;102734;1297;68128;-73
2022/09/30 01:46:57;;;;;;;17.20;9.80;;;;;;;6.68;93.54;99275.96;102954;1297;74499;-73
2022/09/30 01:50:15;;;;;;;18.80;9.70;;;;;;;6.71;93.71;99274.32;102833;1297;61431;-73
2022/09/30 01:53:18;;;;;;;19.30;9.60;;;;;;;6.75;93.53;99277.94;102721;1294;59707;-72
2022/09/30 01:56:20;;;;;;;16.70;9.10;;;;;;;6.79;93.35;99276.91;103023;1294;73547;-73
2022/09/30 02:00:07;;;;;;;16.60;9.00;;;;;;;6.84;93.20;99272.54;103846;1287;68930;-74
2022/09/30 02:03:05;;;;;;;17.10;9.00;;;;;;;6.88;93.21;99269.59;103810;1286;74438;-74
2022/09/30 02:06:21;;;;;;;16.60;8.30;;;;;;;6.90;93.26;99269.08;103742;1288;59879;-74
2022/09/30 02:09:23;;;;;;;16.00;8.90;;;;;;;6.92;93.11;99273.35;104594;1279;59707;-75
2022/09/30 02:12:18;;;;;;;17.40;9.30;;;;;;;6.91;93.07;99268.41;105221;1274;74788;-74
2022/09/30 02:15:15;;;;;;;14.70;8.40;;;;;;;6.93;93.05;99273.08;105080;1274;69623;-74
2022/09/30 02:18:21;;;;;;;15.80;9.10;;;;;;;6.93;92.83;99276.59;105795;1274;73238;-73
2022/09/30 02:21:14;;;;;;;15.30;8.30;;;;;;;6.93;92.99;99279.55;105347;1274;60077;-73
2022/09/30 02:24:09;;;;;;;16.70;9.60;;;;;;;6.96;92.87;99287.15;105241;1274;60567;-73
2022/09/30 02:27:00;;;;;;;14.90;8.00;;;;;;;7.00;93.38;99286.48;104954;1274;73279;-74
2022/09/30 02:29:56;;;;;;;17.30;8.90;;;;;;;7.02;93.15;99289.53;104934;1274;68264;-74
2022/09/30 02:32:55;;;;;;;15.70;9.20;;;;;;;7.02;93.03;99285.95;105098;1274;74364;-74
2022/09/30 02:35:56;;;;;;;16.20;9.00;;;;;;;7.03;92.83;99288.20;104876;1273;59789;-74
2022/09/30 02:38:54;;;;;;;15.80;8.30;;;;;;;7.05;92.82;99288.40;105180;1273;62187;-74
2022/09/30 02:41:53;;;;;;;15.80;8.50;;;;;;;7.06;93.05;99288.46;104780;1272;74611;-73
2022/09/30 02:44:41;;;;;;;15.50;8.40;;;;;;;7.08;92.75;99282.72;104991;1274;69639;-71
2022/09/30 02:47:47;;;;;;;14.20;7.90;;;;;;;7.08;92.64;99282.50;104895;1273;74133;-73
2022/09/30 02:50:48;;;;;;;14.90;8.70;;;;;;;7.09;92.51;99283.32;104903;1274;59762;-72
2022/09/30 02:54:18;;;;;;;16.00;8.50;;;;;;;7.09;92.59;99289.98;104905;1274;62136;-72
2022/09/30 02:57:46;;;;;;;18.50;8.90;;;;;;;7.11;92.76;99293.04;104966;1273;73736;-71
2022/09/30 03:00:34;;;;;;;17.10;9.30;;;;;;;7.11;92.38;99295.88;105134;1274;68153;-71
2022/09/30 03:03:32;;;;;;;16.60;8.70;;;;;;;7.08;92.40;99299.07;104903;1274;70302;-74
2022/09/30 03:06:21;;;;;;;15.80;8.70;;;;;;;7.04;92.35;99300.08;104975;1274;59788;-73
2022/09/30 03:09:09;;;;;;;15.50;8.80;;;;;;;7.02;92.48;99302.59;104982;1274;62063;-72
2022/09/30 03:12:52;;;;;;;18.70;9.70;;;;;;;7.00;92.41;99306.22;105082;1274;74890;-72
2022/09/30 03:16:09;;;;;;;16.80;9.20;;;;;;;6.99;92.48;99309.61;104881;1274;68205;-72
2022/09/30 03:19:10;;;;;;;17.40;9.80;;;;;;;6.98;92.54;99312.52;104840;1274;72964;-71
2022/09/30 03:22:23;;;;;;;17.90;9.90;;;;;;;6.98;92.60;99311.46;104916;1274;59691;-71
2022/09/30 03:25:53;;;;;;;17.80;9.20;;;;;;;6.94;92.51;99310.16;105233;1274;61667;-72
2022/09/30 03:29:13;;;;;;;18.80;10.30;;;;;;;6.89;92.80;99311.61;105585;1274;71806;-72
2022/09/30 03:32:28;;;;;;;21.60;11.20;;;;;;;6.82;92.63;99315.45;105210;1274;68384;-74
2022/09/30 03:36:05;;;;;;;18.00;10.20;;;;;;;6.76;92.66;99316.10;104790;1274;72693;-74
2022/09/30 03:39:24;;;;;;;17.40;9.90;;;;;;;6.69;92.80;99318.58;105013;1274;61407;-72
2022/09/30 03:42:29;;;;;;;17.40;9.60;;;;;;;6.65;92.94;99320.98;105054;1274;62066;-73
2022/09/30 03:45:38;;;;;;;18.60;10.50;;;;;;;6.61;93.04;99321.41;105002;1274;73223;-75
2022/09/30 03:48:30;;;;;;;17.70;9.60;;;;;;;6.59;93.11;99321.23;105219;1274;68387;-74
2022/09/30 03:51:19;;;;;;;18.30;10.00;;;;;;;6.57;93.29;99324.88;104346;1274;1003774;-74
2022/09/30 03:54:11;;;;;;;15.70;9.60;;;;;;;6.56;93.40;99325.52;104941;1274;59678;-74
2022/09/30 03:57:02;;;;;;;18.70;9.10;;;;;;;6.50;93.59;99330.52;105076;1273;60744;-74
2022/09/30 03:59:50;;;;;;;17.00;9.70;;;;;;;6.45;93.14;99336.98;105301;1274;72063;-73
2022/09/30 04:02:38;;;;;;;17.90;9.10;;;;;;;6.42;93.60;99338.84;104949;1274;65571;-76
2022/09/30 04:05:26;;;;;;;19.70;9.20;;;;;;;6.38;94.02;99342.27;105111;1274;73173;-76
2022/09/30 04:08:15;;;;;;;17.30;9.00;;;;;;;6.35;93.98;99343.73;106007;1274;61306;-76
2022/09/30 04:11:06;;;;;;;19.60;9.50;;;;;;;6.35;93.87;99346.22;105750;1272;59512;-77
2022/09/30 04:13:55;;;;;;;17.30;9.70;;;;;;;6.34;94.04;99350.70;104991;1274;74518;-74
2022/09/30 04:16:43;;;;;;;16.40;8.80;;;;;;;6.30;94.00;99357.70;105065;1274;69567;-75
2022/09/30 04:19:34;;;;;;;20.00;10.30;;;;;;;6.25;94.33;99359.10;105044;1274;74354;-75
2022/09/30 04:22:23;;;;;;;17.10;8.30;;;;;;;6.19;94.20;99358.10;105261;1274;59738;-75
2022/09/30 04:25:13;;;;;;;17.30;9.40;;;;;;;6.12;94.47;99360.15;105050;1274;61864;-74
2022/09/30 04:28:01;;;;;;;20.30;10.70;;;;;;;6.06;94.88;99361.80;105323;1274;72052;-75
2022/09/30 04:30:49;;;;;;;18.40;10.60;;;;;;;5.99;94.98;99365.11;105026;1273;69540;-75
2022/09/30 04:33:38;;;;;;;18.50;10.40;;;;;;;5.92;95.60;99369.41;105065;1274;73388;-76
2022/09/30 04:36:27;;;;;;;18.10;9.80;;;;;;;5.88;95.65;99369.86;105273;1274;59874;-74
2022/09/30 04:39:14;;;;;;;16.20;9.50;;;;;;;5.84;95.51;99376.87;105090;1272;60543;-76
2022/09/30 04:42:03;;;;;;;17.20;9.90;;;;;;;5.82;95.75;99378.27;104866;1274;73341;-75
2022/09/30 04:45:03;;;;;;;16.20;9.40;;;;;;;5.81;95.72;99390.81;105221;1274;67915;-75
2022/09/30 04:47:51;;;;;;;18.50;9.80;;;;;;;5.79;95.90;99399.75;105141;1274;72642;-76
2022/09/30 04:50:41;;;;;;;17.20;9.50;;;;;;;5.78;96.01;99401.19;105022;1274;59597;-75
2022/09/30 04:53:29;;;;;;;19.60;9.20;;;;;;;5.78;96.14;99406.13;105240;1274;59770;-75
2022/09/30 04:56:17;;;;;;;20.20;10.50;;;;;;;5.76;96.19;99408.74;105174;1274;74058;-76
2022/09/30 04:59:05;;;;;;;18.50;9.80;;;;;;;5.75;96.73;99408.30;105069;1273;69248;-74
2022/09/30 05:01:53;;;;;;;20.80;10.20;;;;;;;5.75;96.98;99415.16;105723;1273;73421;-75
2022/09/30 05:04:42;;;;;;;19.80;10.00;;;;;;;5.75;96.97;99417.04;105218;1272;59704;-74
2022/09/30 05:07:30;;;;;;;16.40;8.70;;;;;;;5.77;96.57;99418.72;105506;1274;60262;-71
2022/09/30 05:10:19;;;;;;;17.60;10.20;;;;;;;5.79;96.54;99416.80;105052;1274;74812;-73
2022/09/30 05:13:06;;;;;;;21.00;9.40;;;;;;;5.82;96.48;99414.34;105061;1273;67843;-74
2022/09/30 05:15:55;;;;;;;20.70;10.00;;;;;;;5.84;96.67;99416.80;105080;1273;73848;-74
2022/09/30 05:18:44;;;;;;;22.80;10.80;;;;;;;5.86;95.97;99415.48;105130;1273;59775;-74
2022/09/30 05:21:34;;;;;;;19.80;11.20;;;;;;;5.88;96.13;99418.83;104951;1274;61979;-75
2022/09/30 05:24:23;;;;;;;23.40;12.10;;;;;;;5.92;95.74;99422.63;105254;1273;74688;-75
2022/09/30 05:27:11;;;;;;;21.40;11.00;;;;;;;5.97;95.75;99421.77;104959;1274;66699;-74
2022/09/30 05:30:00;;;;;;;18.10;10.60;;;;;;;6.03;95.33;99421.73;105220;1274;71402;-74
2022/09/30 05:32:47;;;;;;;18.50;10.90;;;;;;;6.09;95.35;99419.55;105256;1274;59671;-75
2022/09/30 05:35:36;;;;;;;22.70;11.90;;;;;;;6.18;95.26;99421.91;105286;1274;60495;-76
2022/09/30 05:38:24;;;;;;;19.40;10.30;;;;;;;6.26;95.02;99422.05;105079;1274;72053;-74
2022/09/30 05:41:13;;;;;;;21.90;11.50;;;;;;;6.37;94.82;99426.23;105070;1273;68151;-74
2022/09/30 05:44:02;;;;;;;18.20;9.90;;;;;;;6.45;94.26;99430.23;105283;1273;71317;-74
2022/09/30 05:46:50;;;;;;;22.00;10.40;;;;;;;6.54;93.85;99429.48;104970;1274;60436;-74
2022/09/30 05:49:40;;;;;;;20.50;9.80;;;;;;;6.62;93.66;99427.66;104923;1274;61384;-75
2022/09/30 05:52:28;;;;;;;19.10;9.50;;;;;;;6.73;93.38;99429.17;104954;1273;71877;-75
2022/09/30 05:55:19;;;;;;;17.20;9.90;;;;;;;6.85;93.19;99427.44;104962;1273;66797;-73
2022/09/30 05:58:07;;;;;;;19.10;8.80;;;;;;;6.99;92.39;99428.90;104888;1273;74470;-75
2022/09/30 06:00:56;;;;;;;16.50;9.40;;;;;;;7.16;92.13;99431.56;105027;1273;59477;-74
2022/09/30 06:03:50;;;;;;;17.70;9.30;;;;;;;7.37;91.88;99442.89;105003;1274;61661;-75
2022/09/30 06:06:38;;;;;;;15.70;8.50;;;;;;;7.61;91.36;99453.61;105304;1273;72980;-75
2022/09/30 06:09:26;;;;;;;15.90;8.50;;;;;;;7.84;90.63;99459.52;105041;1273;65892;-75
2022/09/30 06:12:14;;;;;;;18.10;9.10;;;;;;;8.00;89.62;99463.21;105058;1274;72565;-75
2022/09/30 06:15:04;;;;;;;15.80;8.40;;;;;;;8.13;88.51;99465.89;105145;1274;61262;-75
2022/09/30 06:17:53;;;;;;;17.00;9.00;;;;;;;8.20;87.86;99466.27;104903;1274;60952;-75
2022/09/30 06:20:41;;;;;;;14.90;8.10;;;;;;;8.26;87.49;99470.58;104992;1274;74773;-76
2022/09/30 06:23:33;;;;;;;16.60;8.80;;;;;;;8.32;86.92;99470.98;104962;1272;68431;-77
2022/09/30 06:26:22;;;;;;;19.00;8.80;;;;;;;8.41;86.57;99466.25;105076;1274;71606;-74
2022/09/30 06:29:10;;;;;;;15.30;8.40;;;;;;;8.54;85.78;99468.25;105251;1272;59663;-76
2022/09/30 06:31:58;;;;;;;13.30;7.40;;;;;;;8.67;85.00;99475.27;104952;1274;59679;-76
2022/09/30 06:34:46;;;;;;;17.40;8.30;;;;;;;8.80;84.81;99479.63;104969;1274;73072;-76
2022/09/30 06:37:36;;;;;;;16.40;9.10;;;;;;;8.96;84.29;99482.50;105231;1274;68129;-76
2022/09/30 06:40:24;;;;;;;14.90;8.20;;;;;;;9.15;83.93;99489.06;104921;1273;73461;-75
2022/09/30 06:43:13;;;;;;;15.00;8.10;;;;;;;9.35;82.67;99489.79;105041;1274;61198;-73
2022/09/30 06:46:01;;;;;;;14.50;7.70;;;;;;;9.58;81.37;99493.40;104990;1274;61355;-73
2022/09/30 06:49:03;;;;;;;14.80;7.40;;;;;;;10.44;79.31;99487.98;105273;1274;73203;-74
2022/09/30 06:52:01;;;;;;;14.90;7.50;;;;;;;12.13;74.98;99482.27;104398;1274;1003859;-73
2022/09/30 06:54:50;;;;;;;15.00;7.10;;;;;;;13.92;70.61;99474.46;105091;1274;73693;-74
2022/09/30 06:57:40;;;;;;;13.00;6.70;;;;;;;15.46;65.13;99466.73;105211;1274;59797;-75
2022/09/30 07:00:28;;;;;;;13.70;7.10;;;;;;;16.92;59.03;99468.19;105041;1274;61250;-74
2022/09/30 07:03:25;;;;;;;12.80;6.40;;;;;;;18.43;54.70;99465.10;105108;1274;73751;-75
2022/09/30 07:06:14;;;;;;;10.70;6.50;;;;;;;19.79;50.75;99466.98;104903;1274;68833;-74
2022/09/30 07:09:02;;;;;;;9.80;5.60;;;;;;;20.90;44.86;99466.58;105279;1274;72852;-75
2022/09/30 07:11:50;;;;;;;9.30;5.10;;;;;;;21.73;42.98;99468.91;105107;1274;59771;-75
2022/09/30 07:14:38;;;;;;;9.90;5.60;;;;;;;22.52;40.24;99468.61;105058;1274;60373;-75
2022/09/30 07:17:27;;;;;;;10.10;5.90;;;;;;;23.20;38.15;99469.26;105310;1274;74069;-74
2022/09/30 07:20:15;;;;;;;10.20;5.00;;;;;;;23.83;37.31;99472.91;105673;1274;68544;-74
2022/09/30 07:23:03;;;;;;;10.20;4.80;;;;;;;24.26;34.88;99469.75;105081;1274;71555;-74
2022/09/30 07:26:03;;;;;;;9.90;4.80;;;;;;;24.66;34.85;99473.38;105094;1274;59755;-75
2022/09/30 07:28:52;;;;;;;10.00;5.20;;;;;;;25.20;32.98;99477.98;104998;1274;61442;-74
2022/09/30 07:31:40;;;;;;;10.40;5.00;;;;;;;25.62;32.48;99483.26;105427;1274;74164;-73
2022/09/30 07:34:30;;;;;;;9.00;4.90;;;;;;;26.16;31.30;99490.81;105337;1271;68949;-75
2022/09/30 07:37:20;;;;;;;10.10;5.30;;;;;;;26.47;30.56;99486.66;105030;1274;72963;-75
2022/09/30 07:40:09;;;;;;;10.70;4.90;;;;;;;26.81;30.01;99489.89;104913;1274;60165;-75
2022/09/30 07:42:57;;;;;;;10.60;5.00;;;;;;;27.18;29.44;99490.64;105560;1274;60596;-78
2022/09/30 07:45:48;;;;;;;9.90;5.80;;;;;;;27.50;28.97;99496.27;105179;1274;74599;-75
2022/09/30 07:51:35;;;;;;;9.40;5.60;;;;;;;28.08;27.97;99495.05;105317;1274;71622;-78
2022/09/30 07:54:31;;;;;;;9.70;5.50;;;;;;;28.20;27.23;99497.36;105178;1274;59699;-74
2022/09/30 07:57:24;;;;;;;9.70;5.40;;;;;;;28.21;26.63;99503.61;105530;1274;60370;-77
2022/09/30 08:00:12;;;;;;;10.70;5.50;;;;;;;28.43;26.52;99510.73;105241;1274;72000;-77
2022/09/30 08:03:20;;;;;;;9.80;5.00;;;;;;;28.74;25.97;99508.91;105204;1274;69099;-77
2022/09/30 08:06:13;;;;;;;9.00;5.00;;;;;;;28.91;25.68;99507.76;105070;1274;72768;-75
2022/09/30 08:09:01;;;;;;;10.50;5.10;;;;;;;29.14;25.62;99510.34;105079;1274;59701;-77
2022/09/30 08:11:50;;;;;;;10.00;5.90;;;;;;;29.43;25.10;99511.80;105145;1274;60503;-82
2022/09/30 08:14:38;;;;;;;9.20;4.80;;;;;;;29.62;24.68;99512.65;105137;1274;72544;-76
2022/09/30 08:17:26;;;;;;;9.10;5.10;;;;;;;29.78;24.31;99512.83;105371;1272;69774;-83
2022/09/30 08:20:15;;;;;;;9.40;4.60;;;;;;;29.24;24.55;99511.62;105094;1274;72823;-80
2022/09/30 08:23:09;;;;;;;9.70;5.70;;;;;;;29.14;25.18;99513.74;105173;1274;59713;-80
2022/09/30 08:26:08;;;;;;;9.90;4.30;;;;;;;29.54;25.11;99513.56;105001;1274;59661;-77
2022/09/30 08:28:57;;;;;;;8.50;4.60;;;;;;;29.64;24.51;99514.83;105288;1274;71113;-78
2022/09/30 08:31:45;;;;;;;8.90;4.80;;;;;;;29.53;24.77;99512.80;105080;1274;67247;-78
2022/09/30 08:34:34;;;;;;;7.90;3.90;;;;;;;29.76;24.50;99514.48;105181;1272;74114;-74
2022/09/30 08:37:23;;;;;;;8.50;4.60;;;;;;;29.97;24.00;99515.10;105150;1274;59660;-76
2022/09/30 08:40:29;;;;;;;7.90;4.10;;;;;;;30.10;23.71;99519.42;105221;1274;62528;-78
2022/09/30 08:43:49;;;;;;;9.30;4.20;;;;;;;30.17;23.52;99520.48;105100;1274;71728;-79
2022/09/30 08:46:48;;;;;;;8.20;4.00;;;;;;;30.08;23.43;99526.48;105125;1274;69567;-84
2022/09/30 08:50:00;;;;;;;7.70;4.10;;;;;;;30.05;23.09;99531.13;105436;1274;71904;-78
2022/09/30 08:52:53;;;;;;;8.30;4.10;;;;;;;29.81;23.20;99524.08;105287;1274;59691;-80
2022/09/30 08:55:46;;;;;;;7.80;4.00;;;;;;;29.86;22.76;99527.34;105260;1274;59585;-77
2022/09/30 08:58:44;;;;;;;8.30;3.70;;;;;;;29.85;22.83;99531.93;105135;1274;73704;-79
2022/09/30 09:01:37;;;;;;;8.60;3.90;;;;;;;29.81;23.01;99528.88;105333;1274;66562;-72
2022/09/30 09:04:25;;;;;;;8.00;3.80;;;;;;;29.86;23.23;99530.01;105448;1274;73976;-76
2022/09/30 09:07:44;;;;;;;9.40;4.50;;;;;;;30.22;23.14;99531.66;105273;1273;59751;-73
2022/09/30 09:10:58;;;;;;;8.30;4.40;;;;;;;30.68;22.47;99535.84;105148;1274;62356;-77
2022/09/30 09:14:05;;;;;;;7.80;3.80;;;;;;;30.19;22.03;99537.33;105361;1274;72434;-74
2022/09/30 09:17:11;;;;;;;8.60;4.00;;;;;;;29.99;22.84;99537.73;105088;1274;69650;-77
2022/09/30 09:20:20;;;;;;;7.50;3.60;;;;;;;30.47;22.45;99537.58;105379;1273;74429;-79
2022/09/30 09:23:12;;;;;;;7.80;3.60;;;;;;;30.33;22.49;99535.41;104979;1273;59711;-76
2022/09/30 09:26:02;;;;;;;9.00;4.00;;;;;;;30.24;22.64;99535.12;105040;1274;60284;-77
2022/09/30 09:29:16;;;;;;;9.40;3.50;;;;;;;29.59;22.71;99536.30;105323;1274;73651;-76
2022/09/30 09:32:16;;;;;;;7.20;3.20;;;;;;;27.58;24.27;99541.53;105089;1274;70238;-74
2022/09/30 09:35:44;;;;;;;6.90;3.20;;;;;;;27.55;24.02;99545.02;105218;1274;71723;-80
2022/09/30 09:38:50;;;;;;;8.00;3.30;;;;;;;27.43;24.74;99541.64;105140;1272;59784;-75
2022/09/30 09:42:06;;;;;;;7.80;2.60;;;;;;;27.70;23.90;99537.57;105173;1274;61977;-77
2022/09/30 09:45:37;;;;;;;8.70;2.90;;;;;;;27.68;23.39;99533.16;105389;1274;74155;-79
2022/09/30 09:48:28;;;;;;;6.50;2.50;;;;;;;28.46;22.94;99537.66;105324;1274;68053;-75
2022/09/30 09:51:29;;;;;;;6.80;3.10;;;;;;;28.75;22.45;99539.23;105349;1274;73153;-76
2022/09/30 09:54:21;;;;;;;7.40;3.30;;;;;;;28.10;23.37;99542.15;105022;1274;59967;-79
2022/09/30 09:57:24;;;;;;;6.60;3.00;;;;;;;27.87;24.16;99542.13;105029;1274;59749;-77
2022/09/30 10:03:33;;;;;;;7.00;2.50;;;;;;;29.08;22.52;99529.52;105063;1274;68053;-79
2022/09/30 10:06:21;;;;;;;6.50;2.40;;;;;;;29.83;21.79;99527.52;105058;1272;71583;-77
2022/09/30 10:09:35;;;;;;;7.00;2.30;;;;;;;30.38;20.96;99526.34;105141;1272;59768;-74
2022/09/30 10:12:28;;;;;;;6.40;2.50;;;;;;;31.11;20.51;99520.03;105138;1274;61360;-77
2022/09/30 10:15:25;;;;;;;7.00;3.30;;;;;;;31.67;20.06;99519.84;105403;1274;73320;-80
2022/09/30 10:18:36;;;;;;;7.00;2.90;;;;;;;31.24;19.95;99521.48;105113;1274;66571;-75
2022/09/30 10:21:28;;;;;;;7.20;3.30;;;;;;;28.84;22.52;99523.82;105300;1274;74365;-80
2022/09/30 10:24:28;;;;;;;8.70;4.60;;;;;;;27.26;24.65;99524.78;105103;1274;59672;-79
2022/09/30 10:27:33;;;;;;;9.60;3.90;;;;;;;28.11;24.13;99523.91;105674;1271;59580;-76
2022/09/30 10:31:06;;;;;;;7.50;3.10;;;;;;;26.62;24.79;99524.55;106134;1274;71954;-75
2022/09/30 10:34:21;;;;;;;7.30;3.30;;;;;;;25.68;26.57;99521.29;104766;1279;69099;-74
2022/09/30 10:37:18;;;;;;;8.10;3.40;;;;;;;27.00;25.44;99517.69;104551;1279;74371;-78
2022/09/30 10:40:15;;;;;;;7.70;3.20;;;;;;;28.34;24.17;99514.15;104502;1279;60008;-74
2022/09/30 10:43:02;;;;;;;8.40;3.60;;;;;;;29.41;22.75;99516.53;104762;1279;61404;-74
2022/09/30 10:45:52;;;;;;;6.30;2.50;;;;;;;30.08;21.98;99519.20;104877;1279;74809;-77
2022/09/30 10:49:23;;;;;;;8.50;3.10;;;;;;;30.05;21.20;99516.98;104743;1279;66828;-75
2022/09/30 10:52:19;;;;;;;10.50;2.70;;;;;;;29.89;21.80;99523.52;104465;1281;73258;-76
2022/09/30 10:55:30;;;;;;;8.30;2.70;;;;;;;30.00;20.89;99514.25;104472;1281;59662;-76
2022/09/30 10:58:50;;;;;;;9.10;2.60;;;;;;;29.24;20.59;99513.91;104700;1276;61634;-77
2022/09/30 11:01:57;;;;;;;7.20;2.00;;;;;;;27.54;21.89;99510.45;104407;1281;74762;-75
2022/09/30 11:05:23;;;;;;;6.10;1.80;;;;;;;27.03;22.91;99506.39;104443;1281;68579;-73
2022/09/30 11:08:21;;;;;;;7.30;2.30;;;;;;;26.85;23.40;99509.36;104620;1281;73164;-75
2022/09/30 11:11:45;;;;;;;7.20;2.60;;;;;;;26.54;24.06;99511.55;104887;1273;60435;-75
2022/09/30 11:15:15;;;;;;;10.50;3.70;;;;;;;26.54;24.40;99514.53;105867;1274;59680;-80
2022/09/30 11:18:30;;;;;;;12.80;3.40;;;;;;;25.87;25.49;99520.15;105061;1273;72273;-73
2022/09/30 11:21:32;;;;;;;11.20;3.30;;;;;;;23.68;28.88;99525.70;105276;1273;69585;-78
2022/09/30 11:24:47;;;;;;;8.00;3.00;;;;;;;22.35;30.69;99525.83;105251;1273;74116;-75
2022/09/30 11:28:05;;;;;;;7.90;3.00;;;;;;;22.04;32.00;99528.83;105185;1273;60013;-81
2022/09/30 11:31:31;;;;;;;8.30;4.10;;;;;;;21.28;33.06;99535.33;105344;1273;61018;-74
2022/09/30 11:34:48;;;;;;;8.20;3.00;;;;;;;20.52;33.80;99529.48;105017;1272;73348;-75
2022/09/30 11:38:06;;;;;;;7.90;2.90;;;;;;;19.86;35.54;99533.74;105010;1274;67361;-78
2022/09/30 11:41:00;;;;;;;7.20;2.80;;;;;;;19.56;35.65;99531.21;105129;1274;74543;-78
2022/09/30 11:44:04;;;;;;;6.80;2.70;;;;;;;20.14;35.63;99531.55;105044;1274;59656;-76
2022/09/30 11:47:35;;;;;;;6.80;2.70;;;;;;;20.70;35.33;99528.58;105108;1274;59656;-75
2022/09/30 11:50:36;;;;;;;5.80;2.60;;;;;;;21.49;33.51;99519.27;105057;1274;73249;-74
2022/09/30 11:53:55;;;;;;;6.60;2.50;;;;;;;21.49;33.24;99516.52;105402;1274;68780;-75
2022/09/30 11:57:17;;;;;;;6.20;2.70;;;;;;;21.39;33.60;99520.00;105128;1273;72925;-76
2022/09/30 12:00:19;;;;;;;7.20;2.50;;;;;;;20.94;33.97;99524.07;105389;1274;59666;-77
2022/09/30 12:03:32;;;;;;;6.40;2.60;;;;;;;20.66;34.06;99519.39;105243;1274;61970;-82
2022/09/30 12:06:40;;;;;;;7.10;2.40;;;;;;;21.05;33.88;99524.04;105407;1274;72012;-80
2022/09/30 12:09:41;;;;;;;6.60;2.50;;;;;;;21.33;33.35;99524.07;105223;1274;67818;-72
2022/09/30 12:12:31;;;;;;;7.00;2.30;;;;;;;21.10;31.84;99524.80;105111;1274;73273;-75
2022/09/30 12:15:25;;;;;;;7.60;2.20;;;;;;;20.44;32.15;99522.52;104955;1273;59815;-73
2022/09/30 12:18:23;;;;;;;8.50;2.20;;;;;;;19.94;32.63;99523.02;105919;1273;59666;-75
2022/09/30 12:21:31;;;;;;;8.00;2.50;;;;;;;19.58;33.45;99521.80;105631;1273;71957;-77
2022/09/30 12:24:37;;;;;;;8.00;2.40;;;;;;;19.43;34.30;99520.36;104948;1273;68372;-75
2022/09/30 12:27:37;;;;;;;6.40;2.30;;;;;;;19.30;35.15;99515.45;105308;1273;73221;-75
2022/09/30 12:30:29;;;;;;;6.10;2.10;;;;;;;19.28;34.94;99521.30;105491;1274;59585;-76
2022/09/30 12:33:58;;;;;;;7.30;2.20;;;;;;;19.04;35.12;99520.10;104983;1274;61650;-75
2022/09/30 12:37:14;;;;;;;7.30;2.40;;;;;;;18.36;35.95;99521.89;104943;1273;73707;-75
2022/09/30 12:40:21;;;;;;;6.80;2.60;;;;;;;18.23;37.26;99527.95;105039;1273;67823;-76
2022/09/30 12:43:50;;;;;;;7.30;2.30;;;;;;;18.28;37.66;99527.34;105173;1273;74809;-74
2022/09/30 12:46:52;;;;;;;7.30;2.30;;;;;;;18.09;37.56;99539.96;105080;1273;59970;-76
2022/09/30 12:49:42;;;;;;;7.00;2.40;;;;;;;18.03;38.24;99534.10;105164;1273;61907;-75
2022/09/30 12:52:34;;;;;;;6.60;2.40;;;;;;;18.00;37.49;99531.36;104914;1273;72996;-76
2022/09/30 12:55:31;;;;;;;6.70;2.30;;;;;;;17.85;37.77;99533.66;104948;1273;69674;-74
2022/09/30 12:58:42;;;;;;;6.30;1.90;;;;;;;17.75;38.33;99533.23;104855;1274;74341;-75
2022/09/30 13:01:36;;;;;;;6.00;2.00;;;;;;;17.68;37.91;99530.23;104899;1273;59745;-75
2022/09/30 13:04:38;;;;;;;7.40;2.60;;;;;;;17.48;38.04;99531.42;104943;1272;60446;-76
2022/09/30 13:07:26;;;;;;;7.40;2.30;;;;;;;17.30;38.64;99529.95;105556;1273;74528;-73
2022/09/30 13:10:29;;;;;;;6.50;2.60;;;;;;;16.97;39.09;99528.38;105137;1274;68147;-76
2022/09/30 13:13:32;;;;;;;6.70;2.80;;;;;;;16.38;40.22;99528.53;105300;1273;213288;-76
2022/09/30 13:17:06;;;;;;;8.00;2.60;;;;;;;15.94;41.31;99531.67;105232;1273;59681;-76
2022/09/30 13:19:56;;;;;;;9.90;2.50;;;;;;;15.50;42.44;99535.67;105079;1274;60703;-76
2022/09/30 13:22:44;;;;;;;13.40;3.30;;;;;;;15.23;43.23;99535.66;105222;1274;72892;-77
2022/09/30 13:25:53;;;;;;;14.10;3.70;;;;;;;15.05;44.30;99537.23;105020;1274;68615;-77
2022/09/30 13:28:41;;;;;;;12.50;3.50;;;;;;;14.84;44.74;99539.25;105184;1274;70674;-74
2022/09/30 13:31:51;;;;;;;11.10;3.20;;;;;;;14.69;45.77;99536.16;105248;1274;59672;-75
2022/09/30 13:34:54;;;;;;;11.50;3.50;;;;;;;14.57;46.33;99533.23;105007;1274;61418;-74
2022/09/30 13:37:42;;;;;;;8.90;3.90;;;;;;;14.38;47.58;99532.77;105023;1274;73698;-76
2022/09/30 13:40:31;;;;;;;6.90;2.80;;;;;;;14.22;48.24;99533.05;105280;1274;69574;-77
2022/09/30 13:44:02;;;;;;;9.10;3.20;;;;;;;14.07;49.18;99532.54;104935;1273;72725;-75
2022/09/30 13:46:56;;;;;;;9.00;2.80;;;;;;;13.86;50.21;99533.94;104956;1274;59743;-72
2022/09/30 13:50:30;;;;;;;7.50;3.10;;;;;;;13.69;50.85;99534.56;104938;1273;60967;-75
2022/09/30 13:53:40;;;;;;;9.20;3.10;;;;;;;13.53;51.43;99537.95;104018;1276;1003812;-79
2022/09/30 13:56:34;;;;;;;10.20;3.40;;;;;;;13.35;52.87;99541.05;104656;1281;69598;-77
2022/09/30 13:59:41;;;;;;;8.30;3.80;;;;;;;13.24;53.14;99545.52;104393;1281;74501;-75